Details for Ryanair at LIRA




Go Back


Latest METAR
Local Time

LIRA 170850Z 31003KT 260V360 CAVOK 26/21 Q1015
17/08/2018, 11:02:40

Description
Results
Ryanair Logo
Number of Pilots based at LIRA
0 Pilots Based here
Number of Ryanair Flights Departed from LIRA
4 Flights Departed
Number of Ryanair Flights Arrived at LIRA
6 Flights Arrived
Number of Ryanair Schedules Departing from LIRA
109 Schedules
Number of Ryanair Schedules Arriving at LIRA
107 Schedules
Number of Ryanair Schedules Departing from LIRA availible today
42 Schedules Today
Number of Ryanair Schedules Arriving at LIRA availible today
42 Schedules Today
Average Landing Rate at LIRA
-186 fpm
Ryanair Average Landing Rate at LIRA
-172 fpm
Total Fuel Purchased at LIRA by Ryanair
26,625.87 kgs / 58,699.39 lbs

Pilots Based at LIRA


Pilot ID
Pilot Name
Pilot Rank
No. of Flights
No. of Flying Hours
There are no pilots assigned to this hub!   Will you be the first?
Content